Time;durP1;ratioP1;P1;durP2;ratioP2;P2;SDS_P1;SDS_P2;PMS_P1;PMS_P2;Temp;Humidity;BMP_temperature;BMP_pressure;BME280_temperature;BME280_humidity;BME280_pressure;Samples;Min_cycle;Max_cycle;Signal;HPM_P1;HPM_P2
2023/01/16 00:01:00;;;;;;;5.23;0.70;;;5.50;99.90;;;;;;6100772;23;20154;-83
2023/01/16 00:03:26;;;;;;;4.73;0.90;;;5.50;99.90;;;;;;6101405;23;20162;-82
2023/01/16 00:05:52;;;;;;;10.60;1.20;;;5.50;99.90;;;;;;6101438;23;20681;-83
2023/01/16 00:08:17;;;;;;;3.37;0.80;;;5.60;99.90;;;;;;6101179;23;20188;-82
2023/01/16 00:10:44;;;;;;;3.13;1.10;;;5.70;99.90;;;;;;6101231;23;20233;-84
2023/01/16 00:13:12;;;;;;;3.10;0.80;;;5.70;99.90;;;;;;6126590;23;20135;-83
2023/01/16 00:15:38;;;;;;;4.40;0.90;;;5.70;99.90;;;;;;6100665;23;20370;-83
2023/01/16 00:18:04;;;;;;;2.90;0.73;;;5.70;99.90;;;;;;6100646;23;20604;-83
2023/01/16 00:20:29;;;;;;;5.47;1.27;;;5.80;99.90;;;;;;6100956;23;20189;-83
2023/01/16 00:22:55;;;;;;;3.57;0.90;;;5.70;99.90;;;;;;6100684;23;20577;-83
2023/01/16 00:25:21;;;;;;;3.27;1.10;;;5.70;99.90;;;;;;6100563;23;20512;-83
2023/01/16 00:27:46;;;;;;;2.53;1.07;;;5.70;99.90;;;;;;6101558;23;20149;-82
2023/01/16 00:30:12;;;;;;;6.00;1.20;;;5.70;99.90;;;;;;6127770;23;20139;-83
2023/01/16 00:32:38;;;;;;;4.60;0.90;;;5.70;99.90;;;;;;6127293;23;20230;-83
2023/01/16 00:35:04;;;;;;;2.83;0.90;;;5.60;99.90;;;;;;6127377;23;20140;-82
2023/01/16 00:37:29;;;;;;;2.97;0.90;;;5.60;99.90;;;;;;6127651;23;20600;-83
2023/01/16 00:39:55;;;;;;;3.23;1.07;;;5.70;99.90;;;;;;6101431;23;20301;-83
2023/01/16 00:42:20;;;;;;;2.93;0.90;;;5.50;99.90;;;;;;6101623;23;20208;-84
2023/01/16 00:44:46;;;;;;;4.43;1.33;;;5.50;99.90;;;;;;6101285;23;20264;-82
2023/01/16 00:47:11;;;;;;;4.20;0.80;;;5.60;99.90;;;;;;6127616;23;20576;-83
2023/01/16 00:49:38;;;;;;;3.13;0.77;;;5.60;99.90;;;;;;6101460;23;20146;-84
2023/01/16 00:52:04;;;;;;;2.77;1.17;;;5.60;99.90;;;;;;6101463;23;20212;-83
2023/01/16 00:54:30;;;;;;;3.57;0.87;;;5.70;99.90;;;;;;6101297;23;20158;-83
2023/01/16 00:56:55;;;;;;;3.73;2.00;;;5.80;99.90;;;;;;6126211;23;20595;-83
2023/01/16 00:59:21;;;;;;;4.43;1.23;;;5.70;99.90;;;;;;6125890;23;20135;-82
2023/01/16 01:01:47;;;;;;;1.67;0.70;;;5.70;99.90;;;;;;6126286;23;20148;-83
2023/01/16 01:04:13;;;;;;;2.57;0.70;;;5.60;99.90;;;;;;6100309;23;20704;-82
2023/01/16 01:06:39;;;;;;;2.80;0.70;;;5.50;99.90;;;;;;6100363;23;20652;-82
2023/01/16 01:09:05;;;;;;;3.83;0.77;;;5.50;99.90;;;;;;6127025;23;20142;-86
2023/01/16 01:11:31;;;;;;;4.13;0.83;;;5.60;99.90;;;;;;6100278;23;20659;-84
2023/01/16 01:13:57;;;;;;;4.97;1.00;;;5.60;99.90;;;;;;6100265;23;20172;-84
2023/01/16 01:16:24;;;;;;;2.93;0.87;;;5.50;99.90;;;;;;6127370;23;20569;-83
2023/01/16 01:18:50;;;;;;;5.10;1.10;;;5.60;99.90;;;;;;6101514;23;20143;-83
2023/01/16 01:21:16;;;;;;;2.70;1.00;;;5.60;99.90;;;;;;6126535;23;20137;-84
2023/01/16 01:23:42;;;;;;;7.87;1.13;;;5.70;99.90;;;;;;6127146;23;20130;-82
2023/01/16 01:26:14;;;;;;;7.13;1.03;;;5.60;99.90;;;;;;6099984;23;20176;-82
2023/01/16 01:28:39;;;;;;;8.33;1.30;;;5.50;99.90;;;;;;6100865;23;20151;-83
2023/01/16 01:31:07;;;;;;;4.77;1.27;;;5.60;99.90;;;;;;6101014;23;20224;-83
2023/01/16 01:33:34;;;;;;;4.70;1.50;;;5.60;99.90;;;;;;6101857;23;20166;-82
2023/01/16 01:36:00;;;;;;;7.17;1.30;;;5.60;99.90;;;;;;6127326;23;20139;-82
2023/01/16 01:38:25;;;;;;;4.90;1.53;;;5.70;99.90;;;;;;6101055;23;20159;-82
2023/01/16 01:40:51;;;;;;;3.53;1.20;;;5.70;99.90;;;;;;6101208;23;20200;-82
2023/01/16 01:43:17;;;;;;;4.03;1.23;;;5.80;99.90;;;;;;6126307;23;20162;-82
2023/01/16 01:45:51;;;;;;;6.57;1.73;;;5.80;99.90;;;;;;6100960;23;20272;-82
2023/01/16 01:48:27;;;;;;;6.97;1.43;;;5.90;99.90;;;;;;6100616;23;20150;-82
2023/01/16 01:51:08;;;;;;;8.23;1.60;;;6.00;99.90;;;;;;6126973;23;20141;-82
2023/01/16 01:53:40;;;;;;;4.63;1.40;;;6.00;99.90;;;;;;6127200;23;20140;-82
2023/01/16 01:56:20;;;;;;;9.37;1.23;;;6.10;99.90;;;;;;6126564;23;20624;-82
2023/01/16 01:58:54;;;;;;;10.87;1.97;;;6.00;99.90;;;;;;6100409;23;20232;-82
2023/01/16 02:01:19;;;;;;;3.83;1.23;;;6.00;99.90;;;;;;6126910;23;20134;-82
2023/01/16 02:03:56;;;;;;;4.80;1.37;;;6.10;99.90;;;;;;6101305;23;20169;-82
2023/01/16 02:06:28;;;;;;;5.03;1.80;;;6.20;99.90;;;;;;6099817;23;20153;-82
2023/01/16 02:08:55;;;;;;;5.43;1.80;;;6.20;99.90;;;;;;6126036;23;20142;-83
2023/01/16 02:11:36;;;;;;;7.80;1.47;;;6.20;99.90;;;;;;6125678;23;20136;-82
2023/01/16 02:14:09;;;;;;;4.47;1.27;;;6.30;99.90;;;;;;6100068;23;20150;-82
2023/01/16 02:19:37;;;;;;;8.23;1.23;;;6.30;99.90;;;;;;6126266;23;20171;-82
2023/01/16 02:22:29;;;;;;;6.00;1.27;;;6.20;99.90;;;;;;6100389;23;20210;-82
2023/01/16 02:25:18;;;;;;;6.77;2.23;;;6.30;99.90;;;;;;6099825;23;20228;-84
2023/01/16 02:28:02;;;;;;;8.60;1.40;;;6.30;99.90;;;;;;6099572;23;20154;-83
2023/01/16 02:30:31;;;;;;;6.83;1.23;;;6.30;99.90;;;;;;6100565;23;20614;-83
2023/01/16 02:33:11;;;;;;;8.27;1.40;;;6.30;99.90;;;;;;6126502;23;20514;-82
2023/01/16 02:36:09;;;;;;;4.57;1.13;;;6.30;99.90;;;;;;6099496;23;20246;-82
2023/01/16 02:38:43;;;;;;;6.67;1.13;;;6.30;99.90;;;;;;6094473;23;20185;-82
2023/01/16 02:41:21;;;;;;;8.20;1.40;;;6.40;99.90;;;;;;6099508;23;20155;-82
2023/01/16 02:43:57;;;;;;;6.23;1.50;;;6.40;99.90;;;;;;6125443;23;20142;-82
2023/01/16 02:46:56;;;;;;;6.33;1.13;;;6.40;99.90;;;;;;6099707;23;20154;-82
2023/01/16 02:49:30;;;;;;;2.93;0.90;;;6.40;99.90;;;;;;6079658;23;20492;-82
2023/01/16 02:52:05;;;;;;;6.47;1.17;;;6.40;99.90;;;;;;6099957;23;20150;-82
2023/01/16 02:54:46;;;;;;;4.23;1.30;;;6.40;99.90;;;;;;6100330;23;20209;-82
2023/01/16 02:57:21;;;;;;;5.83;1.53;;;6.30;99.90;;;;;;6126956;23;20604;-82
2023/01/16 02:59:49;;;;;;;3.27;1.00;;;6.40;99.90;;;;;;6125439;23;20598;-82
2023/01/16 03:02:15;;;;;;;4.47;1.50;;;6.50;99.90;;;;;;6101209;23;20161;-82
2023/01/16 03:04:50;;;;;;;4.17;1.13;;;6.60;99.90;;;;;;6100257;23;20178;-83
2023/01/16 03:07:43;;;;;;;5.13;1.17;;;6.60;99.90;;;;;;6101049;23;20237;-82
2023/01/16 03:10:25;;;;;;;7.83;1.10;;;6.60;99.90;;;;;;6125068;23;20150;-82
2023/01/16 03:13:14;;;;;;;2.90;1.00;;;6.60;99.90;;;;;;6100531;23;20594;-82
2023/01/16 03:15:52;;;;;;;3.67;0.80;;;6.60;99.90;;;;;;6124130;23;20171;-83
2023/01/16 03:18:43;;;;;;;4.77;1.10;;;6.50;99.90;;;;;;6125232;23;20463;-82
2023/01/16 03:21:17;;;;;;;3.23;1.00;;;6.60;99.90;;;;;;6125418;23;20167;-82
2023/01/16 03:24:06;;;;;;;5.53;1.50;;;6.70;99.90;;;;;;6124719;23;20245;-82
2023/01/16 03:26:45;;;;;;;5.93;1.33;;;6.80;99.90;;;;;;6126477;23;20137;-82
2023/01/16 03:29:38;;;;;;;6.00;1.00;;;6.80;99.90;;;;;;6100677;23;20156;-81
2023/01/16 03:32:22;;;;;;;4.13;0.90;;;6.80;99.90;;;;;;6100749;23;20234;-82
2023/01/16 03:34:53;;;;;;;5.90;1.10;;;6.80;99.90;;;;;;6101554;23;20160;-80
2023/01/16 03:37:30;;;;;;;4.30;0.90;;;7.00;99.90;;;;;;6100669;23;20152;-83
2023/01/16 03:40:04;;;;;;;8.33;1.33;;;7.00;99.90;;;;;;6124939;23;20243;-85
2023/01/16 03:43:04;;;;;;;4.03;1.00;;;7.00;99.90;;;;;;6100232;23;20599;-84
2023/01/16 03:45:45;;;;;;;6.57;1.87;;;7.00;99.90;;;;;;6121580;23;20239;-83
2023/01/16 03:48:18;;;;;;;6.53;1.37;;;7.10;99.90;;;;;;6100922;23;20173;-82
2023/01/16 03:50:51;;;;;;;9.10;1.20;;;7.00;99.90;;;;;;6127134;23;20218;-84
2023/01/16 03:53:21;;;;;;;5.53;0.90;;;7.00;99.90;;;;;;6126432;23;20189;-84
2023/01/16 03:56:07;;;;;;;6.27;0.97;;;7.10;99.90;;;;;;6102317;23;20191;-84
2023/01/16 03:58:38;;;;;;;4.33;0.87;;;7.10;99.90;;;;;;6128550;23;20175;-84
2023/01/16 04:01:32;;;;;;;4.97;1.00;;;7.10;99.90;;;;;;6103964;23;20250;-83
2023/01/16 04:04:07;;;;;;;5.10;1.03;;;7.10;99.90;;;;;;6102153;23;20168;-85
2023/01/16 04:06:57;;;;;;;5.33;0.70;;;7.00;99.90;;;;;;6102306;23;20154;-84
2023/01/16 04:09:35;;;;;;;4.13;1.17;;;7.10;99.90;;;;;;6101215;23;20229;-84
2023/01/16 04:12:03;;;;;;;6.47;1.23;;;7.20;99.90;;;;;;6127509;23;20454;-84
2023/01/16 04:14:31;;;;;;;5.67;0.87;;;7.20;99.90;;;;;;6100945;23;20153;-84
2023/01/16 04:16:58;;;;;;;3.67;0.93;;;7.20;99.90;;;;;;6101407;23;20180;-85
2023/01/16 04:19:26;;;;;;;4.77;1.30;;;7.20;99.90;;;;;;6101029;23;20157;-82
2023/01/16 04:21:53;;;;;;;5.77;0.93;;;7.30;99.90;;;;;;6100848;23;20154;-84
2023/01/16 04:24:19;;;;;;;4.80;0.90;;;7.20;99.90;;;;;;6100701;23;20671;-84
2023/01/16 04:26:45;;;;;;;5.17;0.77;;;7.10;99.90;;;;;;6101267;23;20150;-83
2023/01/16 04:29:10;;;;;;;2.53;1.13;;;7.10;99.90;;;;;;6101178;23;20162;-83
2023/01/16 04:31:36;;;;;;;5.10;0.97;;;7.10;99.90;;;;;;6125799;23;20163;-83
2023/01/16 04:34:02;;;;;;;7.00;1.20;;;7.20;99.90;;;;;;6100369;23;20161;-82
2023/01/16 04:36:30;;;;;;;7.00;1.10;;;7.20;99.90;;;;;;6125131;23;20187;-82
2023/01/16 04:38:56;;;;;;;4.93;0.90;;;7.20;99.90;;;;;;6100849;23;20152;-83
2023/01/16 04:41:37;;;;;;;4.33;1.07;;;7.20;99.90;;;;;;6126882;23;20144;-83
2023/01/16 04:44:05;;;;;;;5.70;1.00;;;7.30;99.90;;;;;;6127531;23;20466;-86
2023/01/16 04:46:38;;;;;;;3.70;0.90;;;7.30;99.90;;;;;;6128341;23;20137;-83
2023/01/16 04:49:04;;;;;;;3.93;0.80;;;7.30;99.90;;;;;;6126295;23;20157;-84
2023/01/16 04:51:30;;;;;;;6.20;0.93;;;7.20;99.90;;;;;;6101985;23;20481;-84
2023/01/16 04:53:56;;;;;;;5.13;0.77;;;7.30;99.90;;;;;;6127703;23;20154;-83
2023/01/16 04:56:23;;;;;;;4.93;1.10;;;7.30;99.90;;;;;;6102078;23;20172;-83
2023/01/16 04:58:50;;;;;;;5.40;0.97;;;7.30;99.90;;;;;;6100792;23;20482;-83
2023/01/16 05:01:17;;;;;;;7.37;1.03;;;7.40;99.90;;;;;;6125143;23;20155;-83
2023/01/16 05:03:43;;;;;;;5.73;0.60;;;7.40;99.90;;;;;;6101206;23;20498;-83
2023/01/16 05:06:08;;;;;;;4.03;0.83;;;7.40;99.90;;;;;;6125866;23;20203;-82
2023/01/16 05:08:34;;;;;;;4.33;1.00;;;7.40;99.90;;;;;;6126407;23;20147;-83
2023/01/16 05:11:01;;;;;;;7.20;1.03;;;7.30;99.90;;;;;;6102090;23;20574;-83
2023/01/16 05:13:28;;;;;;;1.97;0.70;;;7.20;99.90;;;;;;6127162;23;20507;-83
2023/01/16 05:15:53;;;;;;;3.07;0.70;;;7.20;99.90;;;;;;6101499;23;20241;-83
2023/01/16 05:18:19;;;;;;;3.00;0.70;;;7.20;99.90;;;;;;6126704;23;20200;-83
2023/01/16 05:20:45;;;;;;;5.90;0.90;;;7.20;99.90;;;;;;6100859;23;20223;-83
2023/01/16 05:23:10;;;;;;;6.00;1.20;;;7.20;99.90;;;;;;6101847;23;20645;-83
2023/01/16 05:25:37;;;;;;;7.37;1.30;;;7.20;99.90;;;;;;6101436;23;20298;-84
2023/01/16 05:28:02;;;;;;;4.13;0.90;;;7.10;99.90;;;;;;6126908;23;20130;-83
2023/01/16 05:30:28;;;;;;;2.87;0.97;;;6.90;99.90;;;;;;6101843;23;20209;-83
2023/01/16 05:32:54;;;;;;;5.27;0.80;;;6.90;99.90;;;;;;6127269;23;20187;-82
2023/01/16 05:35:20;;;;;;;2.10;0.70;;;7.00;99.90;;;;;;6101292;23;20576;-83
2023/01/16 05:37:46;;;;;;;3.33;0.60;;;6.90;99.90;;;;;;6101592;23;20488;-83
2023/01/16 05:40:13;;;;;;;1.17;0.57;;;7.00;99.90;;;;;;6100902;23;20158;-81
2023/01/16 05:42:42;;;;;;;1.17;0.57;;;6.80;99.90;;;;;;6101372;23;20181;-83
2023/01/16 05:45:08;;;;;;;3.73;1.00;;;6.70;99.90;;;;;;6101214;23;20648;-83
2023/01/16 05:47:34;;;;;;;1.87;0.83;;;6.70;99.90;;;;;;6101542;23;20193;-84
2023/01/16 05:49:59;;;;;;;3.23;0.60;;;6.80;99.90;;;;;;6101273;23;20531;-82
2023/01/16 05:52:26;;;;;;;4.30;0.87;;;6.60;99.90;;;;;;6100974;23;20229;-84
2023/01/16 05:58:16;;;;;;;0.53;0.30;;;6.50;99.90;;;;;;6127638;23;20589;-84
2023/01/16 06:00:42;;;;;;;3.00;0.60;;;6.50;99.90;;;;;;6100821;23;20183;-83
2023/01/16 06:03:11;;;;;;;1.53;0.50;;;6.50;99.90;;;;;;6100645;23;20656;-83
2023/01/16 06:05:40;;;;;;;3.43;0.77;;;6.60;99.90;;;;;;6100906;23;20240;-83
2023/01/16 06:08:06;;;;;;;0.97;0.40;;;6.60;99.90;;;;;;6101860;23;20143;-83
2023/01/16 06:10:32;;;;;;;0.50;0.37;;;6.60;99.90;;;;;;6100637;23;20179;-83
2023/01/16 06:13:01;;;;;;;1.63;0.43;;;6.50;99.90;;;;;;6127703;23;20147;-84
2023/01/16 06:15:29;;;;;;;2.47;0.40;;;6.50;99.90;;;;;;6101566;23;20157;-83
2023/01/16 06:18:02;;;;;;;2.40;0.40;;;6.40;99.90;;;;;;6126273;23;20141;-83
2023/01/16 06:20:29;;;;;;;1.47;0.37;;;6.50;99.90;;;;;;6100547;23;20159;-84
2023/01/16 06:22:58;;;;;;;3.10;0.80;;;6.50;99.90;;;;;;6126430;23;20177;-82
2023/01/16 06:25:24;;;;;;;1.07;0.30;;;6.50;99.90;;;;;;6100422;23;20611;-83
2023/01/16 06:27:52;;;;;;;2.03;0.47;;;6.30;99.90;;;;;;6100745;23;20147;-83
2023/01/16 06:30:21;;;;;;;3.77;0.60;;;6.30;99.90;;;;;;6100331;23;20160;-82
2023/01/16 06:32:51;;;;;;;1.77;0.67;;;6.30;99.90;;;;;;6126038;23;20138;-83
2023/01/16 06:35:23;;;;;;;1.93;0.50;;;6.30;99.90;;;;;;6100811;23;20150;-82
2023/01/16 06:37:50;;;;;;;1.47;0.33;;;6.20;99.90;;;;;;6127102;23;20149;-85
2023/01/16 06:40:18;;;;;;;0.87;0.40;;;6.30;99.90;;;;;;6101050;23;20159;-83
2023/01/16 06:42:47;;;;;;;1.60;0.43;;;6.40;99.90;;;;;;6100854;23;20548;-83
2023/01/16 06:45:16;;;;;;;1.97;0.50;;;6.40;99.90;;;;;;6126802;23;20320;-83
2023/01/16 06:47:58;;;;;;;1.87;0.57;;;6.40;99.90;;;;;;6100386;23;20160;-81
2023/01/16 06:50:25;;;;;;;2.17;0.70;;;6.50;99.90;;;;;;6127217;23;20135;-83
2023/01/16 06:52:53;;;;;;;1.07;0.40;;;6.40;99.90;;;;;;6101047;23;20156;-83
2023/01/16 06:55:19;;;;;;;0.33;0.30;;;6.40;99.90;;;;;;6101736;23;20146;-83
2023/01/16 06:57:46;;;;;;;0.53;0.20;;;6.30;99.90;;;;;;6099553;23;20214;-83
2023/01/16 07:00:12;;;;;;;2.00;0.60;;;6.30;99.90;;;;;;6098578;23;20240;-81
2023/01/16 07:02:39;;;;;;;0.60;0.43;;;6.20;99.90;;;;;;6099348;23;20180;-82
2023/01/16 07:05:09;;;;;;;1.10;0.50;;;6.20;99.90;;;;;;6099932;23;20611;-82
2023/01/16 07:07:35;;;;;;;1.17;0.53;;;6.00;99.90;;;;;;6099483;23;20533;-83
2023/01/16 07:10:02;;;;;;;2.10;0.50;;;6.00;99.90;;;;;;6099284;23;20234;-83
2023/01/16 07:12:28;;;;;;;0.50;0.23;;;5.80;99.90;;;;;;6125705;23;20131;-83
2023/01/16 07:23:21;;;;;;;0.67;0.40;;;5.80;99.90;;;;;;6126099;23;20146;-82
2023/01/16 07:25:47;;;;;;;1.43;0.37;;;5.80;99.90;;;;;;6101136;23;20230;-83
2023/01/16 07:28:13;;;;;;;1.83;0.50;;;5.80;99.90;;;;;;6100911;23;20209;-83
2023/01/16 07:30:39;;;;;;;1.07;0.40;;;5.70;99.90;;;;;;6101081;23;20576;-83
2023/01/16 07:33:06;;;;;;;0.30;0.30;;;5.80;99.90;;;;;;6127185;23;20139;-83
2023/01/16 07:35:31;;;;;;;1.90;0.50;;;5.80;99.90;;;;;;6127069;23;20138;-83
2023/01/16 07:37:57;;;;;;;1.10;0.37;;;5.80;99.90;;;;;;6100657;23;20243;-83
2023/01/16 07:40:23;;;;;;;1.27;0.40;;;5.80;99.90;;;;;;6101065;23;20609;-83
2023/01/16 07:42:50;;;;;;;2.43;0.63;;;5.80;99.90;;;;;;6100576;23;20173;-82
2023/01/16 07:45:16;;;;;;;0.93;0.33;;;5.70;99.90;;;;;;6100867;23;20196;-78
2023/01/16 07:47:42;;;;;;;1.23;0.37;;;5.70;99.90;;;;;;6126859;23;20211;-79
2023/01/16 07:50:08;;;;;;;1.00;0.43;;;5.70;99.90;;;;;;6101089;23;20566;-79
2023/01/16 07:52:35;;;;;;;0.63;0.40;;;5.80;99.90;;;;;;6098599;23;20589;-79
2023/01/16 07:55:00;;;;;;;1.73;0.50;;;5.80;99.90;;;;;;6125722;23;20184;-79
2023/01/16 07:57:27;;;;;;;1.20;0.40;;;5.80;99.90;;;;;;6100139;23;20581;-78
2023/01/16 07:59:59;;;;;;;0.27;0.20;;;5.80;99.90;;;;;;6126815;23;20139;-78
2023/01/16 08:02:26;;;;;;;0.50;0.37;;;5.90;99.90;;;;;;6100745;23;20577;-80
2023/01/16 08:04:59;;;;;;;0.20;0.20;;;5.90;99.90;;;;;;6125834;23;20610;-78
2023/01/16 08:07:31;;;;;;;0.83;0.40;;;5.90;99.90;;;;;;6126855;23;20158;-80
2023/01/16 08:10:04;;;;;;;1.50;0.30;;;5.80;99.90;;;;;;6126917;23;20231;-78
2023/01/16 08:12:31;;;;;;;0.37;0.30;;;5.80;99.90;;;;;;6126582;23;20131;-78
2023/01/16 08:15:00;;;;;;;0.60;0.30;;;5.90;99.90;;;;;;6126098;23;20135;-81
2023/01/16 08:17:34;;;;;;;1.17;0.37;;;5.90;99.90;;;;;;6127439;23;20615;-77
2023/01/16 08:20:00;;;;;;;0.47;0.20;;;6.00;99.90;;;;;;6100968;23;20592;-80
2023/01/16 08:22:26;;;;;;;0.83;0.40;;;6.00;99.90;;;;;;6126121;23;20139;-80
2023/01/16 08:24:52;;;;;;;1.50;0.53;;;6.00;99.90;;;;;;6125993;23;20172;-78
2023/01/16 08:27:21;;;;;;;1.60;0.40;;;6.00;99.90;;;;;;6125689;23;20147;-79
2023/01/16 08:29:48;;;;;;;0.67;0.40;;;6.10;99.90;;;;;;6126165;23;20171;-79
2023/01/16 08:32:13;;;;;;;0.80;0.57;;;6.10;99.90;;;;;;6100956;23;20153;-80
2023/01/16 08:34:40;;;;;;;1.30;0.50;;;6.20;99.90;;;;;;6100074;23;20214;-78
2023/01/16 08:37:07;;;;;;;1.90;0.80;;;6.30;99.90;;;;;;6125795;23;20178;-79
2023/01/16 08:39:32;;;;;;;3.20;1.00;;;6.30;99.90;;;;;;6100961;23;20147;-74
2023/01/16 08:53:03;;;;;;;1.37;0.60;;;6.80;99.90;;;;;;6126595;23;20576;-73
2023/01/16 08:55:29;;;;;;;1.93;0.50;;;6.80;99.90;;;;;;6126745;23;20223;-75
2023/01/16 08:57:58;;;;;;;2.87;0.70;;;7.00;99.90;;;;;;6126627;23;20182;-73
2023/01/16 09:00:27;;;;;;;1.43;0.60;;;6.90;99.90;;;;;;6100736;23;20258;-74
2023/01/16 09:02:55;;;;;;;2.73;0.50;;;6.70;99.90;;;;;;6100733;23;20144;-75
2023/01/16 09:05:22;;;;;;;4.30;0.53;;;6.80;99.90;;;;;;6099742;23;20171;-72
2023/01/16 09:07:49;;;;;;;0.50;0.40;;;6.70;99.90;;;;;;6126680;23;20137;-73
2023/01/16 09:10:15;;;;;;;0.73;0.40;;;6.50;99.90;;;;;;6126333;23;20260;-74
2023/01/16 09:15:25;;;;;;;2.10;0.30;;;6.20;99.90;;;;;;6126532;23;20194;-74
2023/01/16 09:17:51;;;;;;;1.73;0.50;;;6.30;99.90;;;;;;6100543;23;20585;-73
2023/01/16 09:20:19;;;;;;;1.97;0.50;;;6.40;99.90;;;;;;6126494;23;20154;-80
2023/01/16 09:22:45;;;;;;;2.63;0.60;;;6.40;99.90;;;;;;6100768;23;20183;-78
2023/01/16 09:25:10;;;;;;;2.73;0.43;;;6.30;99.90;;;;;;6101218;23;20691;-81
2023/01/16 09:27:39;;;;;;;2.83;0.60;;;6.40;99.90;;;;;;6101368;23;20197;-80
2023/01/16 09:30:06;;;;;;;2.13;0.43;;;6.40;99.90;;;;;;6100294;23;20180;-83
2023/01/16 09:32:34;;;;;;;3.17;0.57;;;6.50;99.90;;;;;;6127108;23;20134;-80
2023/01/16 09:35:00;;;;;;;2.53;0.73;;;6.50;99.90;;;;;;6100537;23;20207;-79
2023/01/16 09:37:26;;;;;;;1.07;0.30;;;6.60;99.90;;;;;;6126131;23;20154;-80
2023/01/16 09:39:53;;;;;;;1.27;0.67;;;6.60;99.90;;;;;;6100418;23;20585;-80
2023/01/16 09:45:46;;;;;;;1.50;0.40;;;6.90;99.90;;;;;;6080532;23;20197;-79
2023/01/16 09:48:36;;;;;;;2.33;0.60;;;6.90;99.90;;;;;;6125190;23;20565;-80
2023/01/16 09:51:07;;;;;;;1.23;0.50;;;7.00;99.90;;;;;;6125734;23;20151;-79
2023/01/16 09:59:54;;;;;;;2.20;0.60;;;7.40;99.90;;;;;;6125839;23;20162;-79
2023/01/16 10:02:26;;;;;;;2.27;0.80;;;7.60;99.90;;;;;;6125874;23;20127;-79
2023/01/16 10:04:54;;;;;;;2.17;0.97;;;7.60;99.90;;;;;;6125951;23;20168;-79
2023/01/16 10:07:37;;;;;;;0.37;0.30;;;7.80;99.90;;;;;;6125806;23;20216;-79
2023/01/16 10:10:34;;;;;;;1.43;0.40;;;7.80;99.90;;;;;;6126793;23;20143;-79
2023/01/16 10:13:10;;;;;;;1.77;0.50;;;7.80;99.90;;;;;;6100110;23;20609;-79
2023/01/16 10:15:42;;;;;;;1.87;0.70;;;7.70;99.90;;;;;;6126004;23;20630;-80
2023/01/16 10:18:30;;;;;;;1.37;0.33;;;7.80;99.90;;;;;;6125996;23;20567;-79
2023/01/16 10:21:17;;;;;;;0.63;0.27;;;7.60;99.90;;;;;;6099971;23;20637;-81
2023/01/16 10:23:53;;;;;;;0.43;0.30;;;7.60;99.90;;;;;;6125751;23;20145;-79
2023/01/16 10:26:35;;;;;;;0.20;0.20;;;7.30;99.90;;;;;;6126360;23;20171;-80
2023/01/16 10:29:38;;;;;;;0.60;0.30;;;7.10;99.90;;;;;;6126118;23;20139;-80
2023/01/16 10:32:35;;;;;;;1.40;0.40;;;6.90;99.90;;;;;;6125963;23;20510;-80
2023/01/16 10:35:06;;;;;;;2.07;0.63;;;6.80;99.90;;;;;;6100428;23;20517;-80
2023/01/16 10:37:38;;;;;;;1.13;0.50;;;6.90;99.90;;;;;;6126209;23;20137;-80
2023/01/16 10:40:25;;;;;;;0.73;0.30;;;7.00;99.90;;;;;;6099670;23;20547;-80
2023/01/16 10:49:25;;;;;;;1.17;0.50;;;6.80;99.90;;;;;;6126131;23;20180;-80
2023/01/16 10:51:39;;;;;;;1.87;1.07;;;7.00;99.90;;;;;;6125989;23;20194;-81
2023/01/16 10:54:04;;;;;;;4.97;2.67;;;6.70;99.90;;;;;;6099037;23;20509;-79
2023/01/16 10:56:32;;;;;;;5.07;3.33;;;6.80;99.90;;;;;;6124873;23;20148;-80
2023/01/16 10:58:58;;;;;;;2.53;1.00;;;6.70;99.90;;;;;;6127600;23;20145;-81
2023/01/16 11:01:26;;;;;;;2.13;1.33;;;6.80;99.90;;;;;;6101356;23;20147;-80
2023/01/16 11:03:58;;;;;;;2.30;0.60;;;6.90;99.90;;;;;;6128070;23;20134;-80
2023/01/16 11:06:29;;;;;;;2.90;1.00;;;6.90;99.90;;;;;;6101554;23;20234;-80
2023/01/16 11:09:04;;;;;;;1.97;0.50;;;6.80;99.90;;;;;;6127497;23;20140;-80
2023/01/16 11:20:44;;;;;;;1.53;0.97;;;7.10;99.90;;;;;;6127597;23;20469;-79
2023/01/16 11:23:25;;;;;;;2.07;1.47;;;7.20;99.90;;;;;;6100519;23;20156;-81
2023/01/16 11:25:55;;;;;;;1.00;0.90;;;7.20;99.90;;;;;;6126856;23;20168;-82
2023/01/16 11:28:26;;;;;;;2.20;1.10;;;7.10;99.90;;;;;;6101283;23;20144;-81
2023/01/16 11:30:56;;;;;;;1.40;0.80;;;7.20;99.90;;;;;;6101453;23;20490;-82
2023/01/16 11:33:25;;;;;;;0.80;0.60;;;7.30;99.90;;;;;;6101237;23;20138;-79
2023/01/16 11:36:00;;;;;;;1.60;0.40;;;7.20;99.90;;;;;;6127749;23;20599;-79
2023/01/16 11:38:28;;;;;;;1.63;0.80;;;7.20;99.90;;;;;;6101004;23;20207;-79
2023/01/16 11:41:01;;;;;;;1.77;0.70;;;7.10;99.90;;;;;;6127411;23;20141;-81
2023/01/16 11:46:28;;;;;;;2.23;0.80;;;7.20;99.90;;;;;;6127285;23;20179;-81
2023/01/16 11:48:58;;;;;;;0.93;0.60;;;7.30;99.90;;;;;;6101283;23;20163;-80
2023/01/16 11:51:36;;;;;;;1.43;0.93;;;7.20;99.90;;;;;;6100753;23;20162;-81
2023/01/16 11:54:09;;;;;;;4.13;1.20;;;7.40;99.90;;;;;;6101641;23;20532;-80
2023/01/16 11:56:49;;;;;;;1.40;0.80;;;7.40;99.90;;;;;;6127148;23;20140;-80
2023/01/16 11:59:47;;;;;;;0.83;0.60;;;7.10;99.90;;;;;;6126756;23;20608;-80
2023/01/16 12:02:24;;;;;;;3.43;0.70;;;7.00;99.90;;;;;;6101711;23;20153;-80
2023/01/16 12:08:26;;;;;;;2.43;1.07;;;6.80;99.90;;;;;;6127383;23;20147;-81
2023/01/16 12:10:51;;;;;;;0.57;0.40;;;6.70;99.90;;;;;;6101122;23;20140;-81
2023/01/16 12:16:29;;;;;;;0.63;0.47;;;6.70;99.90;;;;;;6128184;23;20205;-81
2023/01/16 12:19:12;;;;;;;0.87;0.53;;;6.90;99.90;;;;;;6102115;23;20150;-81
2023/01/16 12:21:49;;;;;;;0.53;0.30;;;6.80;99.90;;;;;;6127461;23;20136;-81
2023/01/16 12:24:22;;;;;;;0.97;0.40;;;6.70;99.90;;;;;;6128028;23;20142;-80
2023/01/16 12:26:57;;;;;;;0.40;0.40;;;6.60;99.90;;;;;;6127759;23;20615;-81
2023/01/16 12:29:32;;;;;;;1.13;0.47;;;6.90;99.90;;;;;;6127608;23;20185;-81
2023/01/16 12:32:13;;;;;;;0.47;0.33;;;7.10;99.90;;;;;;6126986;23;20135;-81
2023/01/16 12:34:58;;;;;;;0.57;0.40;;;7.20;99.90;;;;;;6127258;23;20172;-81
2023/01/16 12:37:39;;;;;;;0.73;0.47;;;7.00;99.90;;;;;;6127009;23;20140;-81
2023/01/16 12:40:15;;;;;;;0.80;0.57;;;7.00;99.90;;;;;;6127327;23;20135;-79
2023/01/16 12:43:18;;;;;;;2.27;0.70;;;7.00;99.90;;;;;;6127204;23;20194;-80
2023/01/16 12:45:55;;;;;;;0.60;0.40;;;7.20;99.90;;;;;;6100933;23;20175;-80
2023/01/16 12:48:58;;;;;;;1.00;0.50;;;6.90;99.90;;;;;;6101234;23;20158;-82
2023/01/16 12:51:31;;;;;;;1.20;0.60;;;6.90;99.90;;;;;;6126888;23;20186;-81
2023/01/16 12:54:24;;;;;;;2.83;0.80;;;6.90;99.90;;;;;;6101089;23;20146;-82
2023/01/16 12:57:11;;;;;;;1.13;0.50;;;7.10;99.90;;;;;;6100924;23;20155;-80
2023/01/16 12:59:47;;;;;;;2.50;0.60;;;6.90;99.90;;;;;;6100386;23;20162;-79
2023/01/16 13:02:13;;;;;;;1.10;0.80;;;7.00;99.90;;;;;;6091268;23;20162;-79
2023/01/16 13:04:44;;;;;;;0.67;0.67;;;6.90;99.90;;;;;;6126366;23;20243;-80
2023/01/16 13:07:16;;;;;;;1.17;0.50;;;7.00;99.90;;;;;;6100531;23;20155;-79
2023/01/16 13:09:50;;;;;;;2.83;0.80;;;7.10;99.90;;;;;;6101993;23;20150;-81
2023/01/16 13:15:37;;;;;;;0.63;0.50;;;7.20;99.90;;;;;;6126960;23;20219;-82
2023/01/16 13:18:19;;;;;;;3.07;0.70;;;7.20;99.90;;;;;;6097000;23;20230;-81
2023/01/16 13:20:49;;;;;;;2.33;0.80;;;7.10;99.90;;;;;;6126766;23;20141;-81
2023/01/16 13:23:20;;;;;;;1.23;0.70;;;7.20;99.90;;;;;;6126794;23;20566;-81
2023/01/16 13:25:57;;;;;;;2.03;1.00;;;7.20;99.90;;;;;;6126497;23;20160;-80
2023/01/16 13:28:37;;;;;;;1.27;0.90;;;7.20;99.90;;;;;;6126911;23;20135;-81
2023/01/16 13:31:11;;;;;;;1.30;0.90;;;7.20;99.90;;;;;;6126949;23;20142;-79
2023/01/16 13:33:42;;;;;;;1.30;0.90;;;7.20;99.90;;;;;;6099806;23;20609;-79
2023/01/16 13:36:24;;;;;;;2.13;1.10;;;7.30;99.90;;;;;;6099848;23;20205;-81
2023/01/16 13:39:31;;;;;;;2.37;1.23;;;7.40;99.90;;;;;;6100066;23;20544;-79
2023/01/16 13:41:58;;;;;;;2.00;1.20;;;7.40;99.90;;;;;;6059590;23;20263;-80
2023/01/16 13:47:21;;;;;;;2.20;1.07;;;7.10;99.90;;;;;;6125396;23;20171;-80
2023/01/16 13:49:53;;;;;;;2.03;1.20;;;7.10;99.90;;;;;;6125911;23;20131;-80
2023/01/16 13:52:25;;;;;;;1.40;0.97;;;7.10;99.90;;;;;;6100505;23;20203;-79
2023/01/16 13:55:06;;;;;;;1.70;1.13;;;7.10;99.90;;;;;;6100291;23;20151;-79
2023/01/16 13:57:32;;;;;;;4.73;1.53;;;7.20;99.90;;;;;;6125928;23;20139;-80
2023/01/16 14:00:00;;;;;;;2.37;1.17;;;7.40;99.90;;;;;;6125089;23;20472;-79
2023/01/16 14:02:45;;;;;;;0.93;0.83;;;7.40;99.90;;;;;;6099741;23;20151;-79
2023/01/16 14:05:40;;;;;;;2.47;1.57;;;7.40;99.90;;;;;;6125856;23;20206;-79
2023/01/16 14:10:55;;;;;;;2.33;1.03;;;7.20;99.90;;;;;;6126323;23;20201;-78
2023/01/16 14:13:26;;;;;;;3.17;1.20;;;7.40;99.90;;;;;;6100407;23;20155;-79
2023/01/16 14:18:48;;;;;;;2.50;1.13;;;7.40;99.90;;;;;;6126377;23;20151;-79
2023/01/16 14:21:25;;;;;;;3.83;1.83;;;7.50;99.90;;;;;;6100445;23;20183;-80
2023/01/16 14:24:02;;;;;;;2.17;1.10;;;7.30;99.90;;;;;;6126746;23;20140;-79
2023/01/16 14:26:59;;;;;;;5.93;1.90;;;7.20;99.90;;;;;;6126176;23;20162;-80
2023/01/16 14:29:45;;;;;;;2.40;1.10;;;7.20;99.90;;;;;;6100563;23;20585;-81
2023/01/16 14:32:11;;;;;;;5.17;1.43;;;7.00;99.90;;;;;;6124365;23;20152;-80
2023/01/16 14:34:57;;;;;;;1.70;0.73;;;7.00;99.90;;;;;;6099981;23;20155;-79
2023/01/16 14:37:36;;;;;;;1.73;1.10;;;7.00;99.90;;;;;;6123301;23;20186;-80